sensor_id;sensor_type;location;lat;lon;timestamp;P1;durP1;ratioP1;P2;durP2;ratioP2
29352;SDS011;16344;50.364;8.944;2023-02-04T00:01:33;33.55;;;6.47;;
29352;SDS011;16344;50.364;8.944;2023-02-04T00:03:59;28.85;;;6.22;;
29352;SDS011;16344;50.364;8.944;2023-02-04T00:06:24;34.58;;;6.85;;
29352;SDS011;16344;50.364;8.944;2023-02-04T00:08:50;38.13;;;6.55;;
29352;SDS011;16344;50.364;8.944;2023-02-04T00:11:16;30.48;;;5.43;;
29352;SDS011;16344;50.364;8.944;2023-02-04T00:13:41;30.25;;;5.60;;
29352;SDS011;16344;50.364;8.944;2023-02-04T00:16:07;35.78;;;5.35;;
29352;SDS011;16344;50.364;8.944;2023-02-04T00:18:32;50.38;;;7.22;;
29352;SDS011;16344;50.364;8.944;2023-02-04T00:20:58;34.03;;;4.68;;
29352;SDS011;16344;50.364;8.944;2023-02-04T00:23:23;37.30;;;6.25;;
29352;SDS011;16344;50.364;8.944;2023-02-04T00:25:49;38.03;;;4.93;;
29352;SDS011;16344;50.364;8.944;2023-02-04T00:28:14;33.75;;;5.43;;
29352;SDS011;16344;50.364;8.944;2023-02-04T00:30:40;46.80;;;5.10;;
29352;SDS011;16344;50.364;8.944;2023-02-04T00:33:05;37.28;;;5.30;;
29352;SDS011;16344;50.364;8.944;2023-02-04T00:35:31;37.45;;;5.95;;
29352;SDS011;16344;50.364;8.944;2023-02-04T00:37:56;33.13;;;4.80;;
29352;SDS011;16344;50.364;8.944;2023-02-04T00:40:22;33.15;;;5.22;;
29352;SDS011;16344;50.364;8.944;2023-02-04T00:42:47;44.28;;;5.60;;
29352;SDS011;16344;50.364;8.944;2023-02-04T00:45:13;32.28;;;5.95;;
29352;SDS011;16344;50.364;8.944;2023-02-04T00:47:38;31.88;;;5.10;;
29352;SDS011;16344;50.364;8.944;2023-02-04T00:50:04;32.25;;;5.95;;
29352;SDS011;16344;50.364;8.944;2023-02-04T00:52:30;30.08;;;5.63;;
29352;SDS011;16344;50.364;8.944;2023-02-04T00:54:56;34.03;;;5.90;;
29352;SDS011;16344;50.364;8.944;2023-02-04T00:57:21;39.75;;;6.15;;
29352;SDS011;16344;50.364;8.944;2023-02-04T00:59:47;30.70;;;5.05;;
29352;SDS011;16344;50.364;8.944;2023-02-04T01:02:12;32.45;;;5.05;;
29352;SDS011;16344;50.364;8.944;2023-02-04T01:04:38;42.45;;;8.10;;
29352;SDS011;16344;50.364;8.944;2023-02-04T01:07:03;39.92;;;6.20;;
29352;SDS011;16344;50.364;8.944;2023-02-04T01:09:29;30.27;;;4.18;;
29352;SDS011;16344;50.364;8.944;2023-02-04T01:11:55;40.05;;;4.97;;
29352;SDS011;16344;50.364;8.944;2023-02-04T01:14:20;32.90;;;5.28;;
29352;SDS011;16344;50.364;8.944;2023-02-04T01:16:46;30.50;;;5.53;;
29352;SDS011;16344;50.364;8.944;2023-02-04T01:19:11;22.88;;;4.97;;
29352;SDS011;16344;50.364;8.944;2023-02-04T01:21:37;40.90;;;6.70;;
29352;SDS011;16344;50.364;8.944;2023-02-04T01:24:03;35.05;;;5.47;;
29352;SDS011;16344;50.364;8.944;2023-02-04T01:26:28;37.88;;;5.45;;
29352;SDS011;16344;50.364;8.944;2023-02-04T01:28:54;30.25;;;4.63;;
29352;SDS011;16344;50.364;8.944;2023-02-04T01:31:20;43.67;;;5.30;;
29352;SDS011;16344;50.364;8.944;2023-02-04T01:33:45;21.27;;;4.22;;
29352;SDS011;16344;50.364;8.944;2023-02-04T01:36:11;33.95;;;4.78;;
29352;SDS011;16344;50.364;8.944;2023-02-04T01:38:37;34.72;;;4.63;;
29352;SDS011;16344;50.364;8.944;2023-02-04T01:41:03;36.05;;;4.97;;
29352;SDS011;16344;50.364;8.944;2023-02-04T01:43:29;37.72;;;5.15;;
29352;SDS011;16344;50.364;8.944;2023-02-04T01:45:55;27.67;;;4.72;;
29352;SDS011;16344;50.364;8.944;2023-02-04T01:48:21;37.05;;;4.90;;
29352;SDS011;16344;50.364;8.944;2023-02-04T01:50:47;30.70;;;4.35;;
29352;SDS011;16344;50.364;8.944;2023-02-04T01:53:17;46.35;;;5.38;;
29352;SDS011;16344;50.364;8.944;2023-02-04T01:55:49;31.02;;;4.72;;
29352;SDS011;16344;50.364;8.944;2023-02-04T01:58:15;31.70;;;4.97;;
29352;SDS011;16344;50.364;8.944;2023-02-04T02:00:41;36.22;;;4.75;;
29352;SDS011;16344;50.364;8.944;2023-02-04T02:03:06;52.58;;;5.88;;
29352;SDS011;16344;50.364;8.944;2023-02-04T02:05:39;40.67;;;5.15;;
29352;SDS011;16344;50.364;8.944;2023-02-04T02:08:07;31.45;;;4.68;;
29352;SDS011;16344;50.364;8.944;2023-02-04T02:10:34;29.42;;;4.25;;
29352;SDS011;16344;50.364;8.944;2023-02-04T02:13:02;31.45;;;5.50;;
29352;SDS011;16344;50.364;8.944;2023-02-04T02:15:28;38.72;;;5.95;;
29352;SDS011;16344;50.364;8.944;2023-02-04T02:17:54;36.00;;;5.10;;
29352;SDS011;16344;50.364;8.944;2023-02-04T02:20:20;46.97;;;6.00;;
29352;SDS011;16344;50.364;8.944;2023-02-04T02:25:45;41.08;;;6.32;;
29352;SDS011;16344;50.364;8.944;2023-02-04T02:28:13;38.38;;;5.93;;
29352;SDS011;16344;50.364;8.944;2023-02-04T02:30:41;36.95;;;5.10;;
29352;SDS011;16344;50.364;8.944;2023-02-04T02:33:09;39.03;;;6.40;;
29352;SDS011;16344;50.364;8.944;2023-02-04T02:35:38;38.33;;;6.28;;
29352;SDS011;16344;50.364;8.944;2023-02-04T02:38:07;31.10;;;5.00;;
29352;SDS011;16344;50.364;8.944;2023-02-04T02:40:34;29.27;;;4.85;;
29352;SDS011;16344;50.364;8.944;2023-02-04T02:42:59;43.83;;;5.57;;
29352;SDS011;16344;50.364;8.944;2023-02-04T02:45:26;39.97;;;5.53;;
29352;SDS011;16344;50.364;8.944;2023-02-04T02:47:55;40.47;;;5.70;;
29352;SDS011;16344;50.364;8.944;2023-02-04T02:50:23;32.78;;;4.93;;
29352;SDS011;16344;50.364;8.944;2023-02-04T02:52:51;41.00;;;5.75;;
29352;SDS011;16344;50.364;8.944;2023-02-04T02:55:18;38.33;;;5.15;;
29352;SDS011;16344;50.364;8.944;2023-02-04T02:57:47;37.38;;;4.45;;
29352;SDS011;16344;50.364;8.944;2023-02-04T03:00:14;35.67;;;6.55;;
29352;SDS011;16344;50.364;8.944;2023-02-04T03:02:41;36.83;;;5.00;;
29352;SDS011;16344;50.364;8.944;2023-02-04T03:05:07;43.85;;;5.38;;
29352;SDS011;16344;50.364;8.944;2023-02-04T03:07:33;34.45;;;5.47;;
29352;SDS011;16344;50.364;8.944;2023-02-04T03:09:59;40.78;;;5.47;;
29352;SDS011;16344;50.364;8.944;2023-02-04T03:12:25;32.55;;;5.35;;
29352;SDS011;16344;50.364;8.944;2023-02-04T03:14:50;36.90;;;5.60;;
29352;SDS011;16344;50.364;8.944;2023-02-04T03:17:16;35.53;;;5.22;;
29352;SDS011;16344;50.364;8.944;2023-02-04T03:19:42;40.08;;;4.88;;
29352;SDS011;16344;50.364;8.944;2023-02-04T03:22:08;43.67;;;5.35;;
29352;SDS011;16344;50.364;8.944;2023-02-04T03:24:34;41.58;;;4.75;;
29352;SDS011;16344;50.364;8.944;2023-02-04T03:27:00;50.33;;;5.15;;
29352;SDS011;16344;50.364;8.944;2023-02-04T03:29:26;39.10;;;5.32;;
29352;SDS011;16344;50.364;8.944;2023-02-04T03:31:51;36.85;;;5.03;;
29352;SDS011;16344;50.364;8.944;2023-02-04T03:34:19;42.15;;;6.03;;
29352;SDS011;16344;50.364;8.944;2023-02-04T03:36:45;42.60;;;5.63;;
29352;SDS011;16344;50.364;8.944;2023-02-04T03:39:11;34.33;;;5.60;;
29352;SDS011;16344;50.364;8.944;2023-02-04T03:41:36;49.05;;;6.20;;
29352;SDS011;16344;50.364;8.944;2023-02-04T03:44:02;39.45;;;5.57;;
29352;SDS011;16344;50.364;8.944;2023-02-04T03:46:27;34.95;;;6.00;;
29352;SDS011;16344;50.364;8.944;2023-02-04T03:48:53;35.05;;;6.30;;
29352;SDS011;16344;50.364;8.944;2023-02-04T03:51:19;48.65;;;5.78;;
29352;SDS011;16344;50.364;8.944;2023-02-04T03:53:44;56.55;;;5.40;;
29352;SDS011;16344;50.364;8.944;2023-02-04T03:56:10;41.00;;;5.05;;
29352;SDS011;16344;50.364;8.944;2023-02-04T03:58:35;49.38;;;6.18;;
29352;SDS011;16344;50.364;8.944;2023-02-04T04:01:01;55.83;;;5.72;;
29352;SDS011;16344;50.364;8.944;2023-02-04T04:03:26;36.40;;;4.75;;
29352;SDS011;16344;50.364;8.944;2023-02-04T04:05:52;43.00;;;5.63;;
29352;SDS011;16344;50.364;8.944;2023-02-04T04:08:17;40.15;;;5.53;;
29352;SDS011;16344;50.364;8.944;2023-02-04T04:10:43;32.75;;;5.45;;
29352;SDS011;16344;50.364;8.944;2023-02-04T04:13:08;39.85;;;6.60;;
29352;SDS011;16344;50.364;8.944;2023-02-04T04:15:34;45.30;;;5.45;;
29352;SDS011;16344;50.364;8.944;2023-02-04T04:17:59;40.05;;;5.82;;
29352;SDS011;16344;50.364;8.944;2023-02-04T04:20:25;38.42;;;6.20;;
29352;SDS011;16344;50.364;8.944;2023-02-04T04:22:52;39.92;;;5.10;;
29352;SDS011;16344;50.364;8.944;2023-02-04T04:25:17;34.35;;;4.68;;
29352;SDS011;16344;50.364;8.944;2023-02-04T04:27:43;47.40;;;7.28;;
29352;SDS011;16344;50.364;8.944;2023-02-04T04:30:09;45.10;;;6.03;;
29352;SDS011;16344;50.364;8.944;2023-02-04T04:32:35;31.42;;;4.70;;
29352;SDS011;16344;50.364;8.944;2023-02-04T04:35:01;44.78;;;5.38;;
29352;SDS011;16344;50.364;8.944;2023-02-04T04:37:27;35.63;;;7.18;;
29352;SDS011;16344;50.364;8.944;2023-02-04T04:39:53;39.25;;;5.63;;
29352;SDS011;16344;50.364;8.944;2023-02-04T04:42:18;49.17;;;7.40;;
29352;SDS011;16344;50.364;8.944;2023-02-04T04:44:44;39.40;;;6.45;;
29352;SDS011;16344;50.364;8.944;2023-02-04T04:47:09;70.28;;;6.95;;
29352;SDS011;16344;50.364;8.944;2023-02-04T04:49:35;50.17;;;6.57;;
29352;SDS011;16344;50.364;8.944;2023-02-04T04:52:00;47.92;;;6.15;;
29352;SDS011;16344;50.364;8.944;2023-02-04T04:54:26;35.22;;;5.95;;
29352;SDS011;16344;50.364;8.944;2023-02-04T04:56:51;60.47;;;6.40;;
29352;SDS011;16344;50.364;8.944;2023-02-04T04:59:17;40.70;;;6.97;;
29352;SDS011;16344;50.364;8.944;2023-02-04T05:01:42;44.35;;;5.10;;
29352;SDS011;16344;50.364;8.944;2023-02-04T05:04:08;50.97;;;6.22;;
29352;SDS011;16344;50.364;8.944;2023-02-04T05:06:33;56.97;;;6.13;;
29352;SDS011;16344;50.364;8.944;2023-02-04T05:08:59;54.10;;;6.63;;
29352;SDS011;16344;50.364;8.944;2023-02-04T05:11:25;41.78;;;5.95;;
29352;SDS011;16344;50.364;8.944;2023-02-04T05:13:50;45.08;;;5.90;;
29352;SDS011;16344;50.364;8.944;2023-02-04T05:16:16;46.95;;;6.15;;
29352;SDS011;16344;50.364;8.944;2023-02-04T05:18:42;43.85;;;5.75;;
29352;SDS011;16344;50.364;8.944;2023-02-04T05:21:08;46.28;;;5.60;;
29352;SDS011;16344;50.364;8.944;2023-02-04T05:23:33;42.58;;;6.55;;
29352;SDS011;16344;50.364;8.944;2023-02-04T05:25:59;51.80;;;6.65;;
29352;SDS011;16344;50.364;8.944;2023-02-04T05:28:24;44.50;;;6.70;;
29352;SDS011;16344;50.364;8.944;2023-02-04T05:30:50;49.17;;;6.25;;
29352;SDS011;16344;50.364;8.944;2023-02-04T05:33:16;42.30;;;6.40;;
29352;SDS011;16344;50.364;8.944;2023-02-04T05:35:41;59.95;;;6.25;;
29352;SDS011;16344;50.364;8.944;2023-02-04T05:38:07;48.15;;;5.55;;
29352;SDS011;16344;50.364;8.944;2023-02-04T05:40:32;35.97;;;6.03;;
29352;SDS011;16344;50.364;8.944;2023-02-04T05:42:58;57.28;;;5.85;;
29352;SDS011;16344;50.364;8.944;2023-02-04T05:45:23;60.28;;;6.43;;
29352;SDS011;16344;50.364;8.944;2023-02-04T05:47:49;49.72;;;6.80;;
29352;SDS011;16344;50.364;8.944;2023-02-04T05:50:14;55.70;;;6.93;;
29352;SDS011;16344;50.364;8.944;2023-02-04T05:52:40;68.30;;;7.85;;
29352;SDS011;16344;50.364;8.944;2023-02-04T05:55:06;51.15;;;6.35;;
29352;SDS011;16344;50.364;8.944;2023-02-04T05:57:32;39.85;;;6.57;;
29352;SDS011;16344;50.364;8.944;2023-02-04T05:59:57;61.22;;;9.05;;
29352;SDS011;16344;50.364;8.944;2023-02-04T06:02:23;49.17;;;5.93;;
29352;SDS011;16344;50.364;8.944;2023-02-04T06:04:49;51.97;;;6.03;;
29352;SDS011;16344;50.364;8.944;2023-02-04T06:07:14;56.50;;;7.40;;
29352;SDS011;16344;50.364;8.944;2023-02-04T06:09:40;45.78;;;6.40;;
29352;SDS011;16344;50.364;8.944;2023-02-04T06:12:05;62.40;;;7.50;;
29352;SDS011;16344;50.364;8.944;2023-02-04T06:14:31;58.63;;;7.25;;
29352;SDS011;16344;50.364;8.944;2023-02-04T06:16:56;71.00;;;6.68;;
29352;SDS011;16344;50.364;8.944;2023-02-04T06:19:23;55.28;;;7.00;;
29352;SDS011;16344;50.364;8.944;2023-02-04T06:21:49;52.65;;;6.88;;
29352;SDS011;16344;50.364;8.944;2023-02-04T06:24:15;50.67;;;6.30;;
29352;SDS011;16344;50.364;8.944;2023-02-04T06:26:40;66.43;;;7.60;;
29352;SDS011;16344;50.364;8.944;2023-02-04T06:29:06;68.07;;;6.75;;
29352;SDS011;16344;50.364;8.944;2023-02-04T06:31:31;61.30;;;6.38;;
29352;SDS011;16344;50.364;8.944;2023-02-04T06:33:57;53.90;;;6.30;;
29352;SDS011;16344;50.364;8.944;2023-02-04T06:36:22;54.25;;;6.97;;
29352;SDS011;16344;50.364;8.944;2023-02-04T06:38:48;64.47;;;7.05;;
29352;SDS011;16344;50.364;8.944;2023-02-04T06:41:13;59.45;;;6.55;;
29352;SDS011;16344;50.364;8.944;2023-02-04T06:43:39;45.03;;;5.72;;
29352;SDS011;16344;50.364;8.944;2023-02-04T06:46:04;47.38;;;5.88;;
29352;SDS011;16344;50.364;8.944;2023-02-04T06:48:30;50.70;;;7.60;;
29352;SDS011;16344;50.364;8.944;2023-02-04T06:50:55;57.00;;;7.72;;
29352;SDS011;16344;50.364;8.944;2023-02-04T06:53:21;44.80;;;7.18;;
29352;SDS011;16344;50.364;8.944;2023-02-04T06:55:46;62.45;;;8.10;;
29352;SDS011;16344;50.364;8.944;2023-02-04T06:58:12;48.78;;;6.95;;
29352;SDS011;16344;50.364;8.944;2023-02-04T07:00:37;50.75;;;6.70;;
29352;SDS011;16344;50.364;8.944;2023-02-04T07:03:03;57.90;;;6.65;;
29352;SDS011;16344;50.364;8.944;2023-02-04T07:05:28;62.17;;;7.82;;
29352;SDS011;16344;50.364;8.944;2023-02-04T07:07:54;53.35;;;5.57;;
29352;SDS011;16344;50.364;8.944;2023-02-04T07:10:20;40.97;;;5.20;;
29352;SDS011;16344;50.364;8.944;2023-02-04T07:12:45;50.47;;;7.30;;
29352;SDS011;16344;50.364;8.944;2023-02-04T07:15:11;50.70;;;5.90;;
29352;SDS011;16344;50.364;8.944;2023-02-04T07:17:36;42.38;;;5.72;;
29352;SDS011;16344;50.364;8.944;2023-02-04T07:20:02;41.25;;;6.22;;
29352;SDS011;16344;50.364;8.944;2023-02-04T07:22:28;47.63;;;6.43;;
29352;SDS011;16344;50.364;8.944;2023-02-04T07:24:53;55.58;;;5.53;;
29352;SDS011;16344;50.364;8.944;2023-02-04T07:27:19;39.95;;;4.88;;
29352;SDS011;16344;50.364;8.944;2023-02-04T07:29:44;35.58;;;4.85;;
29352;SDS011;16344;50.364;8.944;2023-02-04T07:32:10;35.25;;;4.53;;
29352;SDS011;16344;50.364;8.944;2023-02-04T07:34:35;38.35;;;5.32;;
29352;SDS011;16344;50.364;8.944;2023-02-04T07:37:01;57.22;;;7.22;;
29352;SDS011;16344;50.364;8.944;2023-02-04T07:39:26;47.67;;;5.53;;
29352;SDS011;16344;50.364;8.944;2023-02-04T07:41:52;54.90;;;6.95;;
29352;SDS011;16344;50.364;8.944;2023-02-04T07:44:17;65.40;;;5.93;;
29352;SDS011;16344;50.364;8.944;2023-02-04T07:46:43;46.97;;;6.10;;
29352;SDS011;16344;50.364;8.944;2023-02-04T07:49:08;57.35;;;6.03;;
29352;SDS011;16344;50.364;8.944;2023-02-04T07:51:34;39.72;;;5.60;;
29352;SDS011;16344;50.364;8.944;2023-02-04T07:53:59;59.00;;;7.97;;
29352;SDS011;16344;50.364;8.944;2023-02-04T07:56:25;49.00;;;6.70;;
29352;SDS011;16344;50.364;8.944;2023-02-04T07:58:51;38.75;;;5.53;;
29352;SDS011;16344;50.364;8.944;2023-02-04T08:01:16;41.80;;;6.18;;
29352;SDS011;16344;50.364;8.944;2023-02-04T08:03:42;51.88;;;7.53;;
29352;SDS011;16344;50.364;8.944;2023-02-04T08:06:08;59.05;;;7.60;;
29352;SDS011;16344;50.364;8.944;2023-02-04T08:08:34;42.78;;;5.38;;
29352;SDS011;16344;50.364;8.944;2023-02-04T08:10:59;44.78;;;6.78;;
29352;SDS011;16344;50.364;8.944;2023-02-04T08:13:25;35.42;;;5.72;;
29352;SDS011;16344;50.364;8.944;2023-02-04T08:15:50;54.15;;;6.82;;
29352;SDS011;16344;50.364;8.944;2023-02-04T08:18:16;52.28;;;6.75;;
29352;SDS011;16344;50.364;8.944;2023-02-04T08:20:41;44.20;;;6.80;;
29352;SDS011;16344;50.364;8.944;2023-02-04T08:23:07;38.60;;;5.63;;
29352;SDS011;16344;50.364;8.944;2023-02-04T08:25:32;35.80;;;5.13;;
29352;SDS011;16344;50.364;8.944;2023-02-04T08:27:58;44.65;;;6.28;;
29352;SDS011;16344;50.364;8.944;2023-02-04T08:30:23;46.05;;;5.57;;
29352;SDS011;16344;50.364;8.944;2023-02-04T08:32:49;44.47;;;5.00;;
29352;SDS011;16344;50.364;8.944;2023-02-04T08:35:15;45.22;;;5.28;;
29352;SDS011;16344;50.364;8.944;2023-02-04T08:37:40;60.28;;;7.43;;
29352;SDS011;16344;50.364;8.944;2023-02-04T08:40:06;59.10;;;6.72;;
29352;SDS011;16344;50.364;8.944;2023-02-04T08:42:31;47.20;;;6.78;;
29352;SDS011;16344;50.364;8.944;2023-02-04T08:44:58;32.45;;;4.65;;
29352;SDS011;16344;50.364;8.944;2023-02-04T08:47:24;45.75;;;7.28;;
29352;SDS011;16344;50.364;8.944;2023-02-04T08:49:50;43.95;;;6.47;;
29352;SDS011;16344;50.364;8.944;2023-02-04T08:52:15;34.47;;;6.13;;
29352;SDS011;16344;50.364;8.944;2023-02-04T08:54:41;37.67;;;5.88;;
29352;SDS011;16344;50.364;8.944;2023-02-04T08:57:06;42.33;;;5.07;;
29352;SDS011;16344;50.364;8.944;2023-02-04T08:59:32;42.30;;;5.35;;
29352;SDS011;16344;50.364;8.944;2023-02-04T09:01:58;31.80;;;4.25;;
29352;SDS011;16344;50.364;8.944;2023-02-04T09:04:23;41.17;;;4.93;;
29352;SDS011;16344;50.364;8.944;2023-02-04T09:06:49;43.67;;;4.95;;
29352;SDS011;16344;50.364;8.944;2023-02-04T09:09:15;30.65;;;4.53;;
29352;SDS011;16344;50.364;8.944;2023-02-04T09:11:42;42.30;;;4.97;;
29352;SDS011;16344;50.364;8.944;2023-02-04T09:14:07;55.65;;;6.03;;
29352;SDS011;16344;50.364;8.944;2023-02-04T09:16:33;36.92;;;4.75;;
29352;SDS011;16344;50.364;8.944;2023-02-04T09:18:59;37.83;;;5.20;;
29352;SDS011;16344;50.364;8.944;2023-02-04T09:21:25;35.75;;;4.53;;
29352;SDS011;16344;50.364;8.944;2023-02-04T09:23:51;29.35;;;5.18;;
29352;SDS011;16344;50.364;8.944;2023-02-04T09:26:17;35.35;;;5.95;;
29352;SDS011;16344;50.364;8.944;2023-02-04T09:28:42;42.70;;;6.53;;
29352;SDS011;16344;50.364;8.944;2023-02-04T09:31:08;42.70;;;5.70;;
29352;SDS011;16344;50.364;8.944;2023-02-04T09:33:34;36.00;;;5.22;;
29352;SDS011;16344;50.364;8.944;2023-02-04T09:36:01;28.75;;;5.57;;
29352;SDS011;16344;50.364;8.944;2023-02-04T09:38:26;32.42;;;5.32;;
29352;SDS011;16344;50.364;8.944;2023-02-04T09:41:02;37.58;;;5.38;;
29352;SDS011;16344;50.364;8.944;2023-02-04T09:43:31;38.03;;;4.47;;
29352;SDS011;16344;50.364;8.944;2023-02-04T09:45:59;33.78;;;4.93;;
29352;SDS011;16344;50.364;8.944;2023-02-04T09:48:25;27.52;;;4.30;;
29352;SDS011;16344;50.364;8.944;2023-02-04T09:50:51;31.73;;;5.00;;
29352;SDS011;16344;50.364;8.944;2023-02-04T09:53:24;39.95;;;4.20;;
29352;SDS011;16344;50.364;8.944;2023-02-04T09:55:50;45.03;;;5.50;;
29352;SDS011;16344;50.364;8.944;2023-02-04T09:58:17;31.75;;;4.55;;
29352;SDS011;16344;50.364;8.944;2023-02-04T10:00:51;33.53;;;4.93;;
29352;SDS011;16344;50.364;8.944;2023-02-04T10:03:22;53.08;;;6.47;;
29352;SDS011;16344;50.364;8.944;2023-02-04T10:05:47;39.42;;;6.07;;
29352;SDS011;16344;50.364;8.944;2023-02-04T10:08:35;37.03;;;5.15;;
29352;SDS011;16344;50.364;8.944;2023-02-04T10:11:00;30.38;;;5.75;;
29352;SDS011;16344;50.364;8.944;2023-02-04T10:13:47;31.70;;;5.70;;
29352;SDS011;16344;50.364;8.944;2023-02-04T10:16:19;32.30;;;4.75;;
29352;SDS011;16344;50.364;8.944;2023-02-04T10:18:59;35.72;;;5.18;;
29352;SDS011;16344;50.364;8.944;2023-02-04T10:21:28;25.90;;;4.47;;
29352;SDS011;16344;50.364;8.944;2023-02-04T10:23:57;38.55;;;4.03;;
29352;SDS011;16344;50.364;8.944;2023-02-04T10:26:27;32.42;;;4.55;;
29352;SDS011;16344;50.364;8.944;2023-02-04T10:28:58;38.92;;;5.15;;
29352;SDS011;16344;50.364;8.944;2023-02-04T10:31:39;40.17;;;5.75;;
29352;SDS011;16344;50.364;8.944;2023-02-04T10:34:09;29.75;;;3.67;;
29352;SDS011;16344;50.364;8.944;2023-02-04T10:36:45;30.35;;;4.43;;
29352;SDS011;16344;50.364;8.944;2023-02-04T10:39:16;22.63;;;4.55;;
29352;SDS011;16344;50.364;8.944;2023-02-04T10:41:47;26.23;;;4.20;;
29352;SDS011;16344;50.364;8.944;2023-02-04T10:44:16;33.58;;;4.43;;
29352;SDS011;16344;50.364;8.944;2023-02-04T10:46:44;31.20;;;5.00;;
29352;SDS011;16344;50.364;8.944;2023-02-04T10:49:20;26.77;;;3.85;;
29352;SDS011;16344;50.364;8.944;2023-02-04T10:51:47;46.17;;;6.82;;
29352;SDS011;16344;50.364;8.944;2023-02-04T10:54:14;35.13;;;6.68;;
29352;SDS011;16344;50.364;8.944;2023-02-04T10:57:07;51.08;;;10.60;;
29352;SDS011;16344;50.364;8.944;2023-02-04T10:59:35;43.85;;;6.57;;
29352;SDS011;16344;50.364;8.944;2023-02-04T11:02:05;24.98;;;3.80;;
29352;SDS011;16344;50.364;8.944;2023-02-04T11:04:45;36.80;;;9.10;;
29352;SDS011;16344;50.364;8.944;2023-02-04T11:07:11;34.88;;;5.88;;
29352;SDS011;16344;50.364;8.944;2023-02-04T11:09:40;24.48;;;4.43;;
29352;SDS011;16344;50.364;8.944;2023-02-04T11:12:17;37.05;;;4.32;;
29352;SDS011;16344;50.364;8.944;2023-02-04T11:15:04;34.17;;;4.30;;
29352;SDS011;16344;50.364;8.944;2023-02-04T11:17:31;27.17;;;4.90;;
29352;SDS011;16344;50.364;8.944;2023-02-04T11:19:59;37.90;;;4.20;;
29352;SDS011;16344;50.364;8.944;2023-02-04T11:22:41;31.50;;;3.53;;
29352;SDS011;16344;50.364;8.944;2023-02-04T11:28:12;32.55;;;4.60;;
29352;SDS011;16344;50.364;8.944;2023-02-04T11:30:38;23.77;;;3.45;;
29352;SDS011;16344;50.364;8.944;2023-02-04T11:33:05;21.67;;;3.83;;
29352;SDS011;16344;50.364;8.944;2023-02-04T11:35:55;20.50;;;3.28;;
29352;SDS011;16344;50.364;8.944;2023-02-04T11:38:26;32.13;;;4.35;;
29352;SDS011;16344;50.364;8.944;2023-02-04T11:40:55;28.15;;;3.35;;
29352;SDS011;16344;50.364;8.944;2023-02-04T11:43:21;22.25;;;3.53;;
29352;SDS011;16344;50.364;8.944;2023-02-04T11:45:47;26.83;;;3.53;;
29352;SDS011;16344;50.364;8.944;2023-02-04T11:48:19;20.58;;;3.75;;
29352;SDS011;16344;50.364;8.944;2023-02-04T11:50:55;31.38;;;3.50;;
29352;SDS011;16344;50.364;8.944;2023-02-04T11:53:28;21.15;;;3.50;;
29352;SDS011;16344;50.364;8.944;2023-02-04T11:55:55;25.65;;;3.33;;
29352;SDS011;16344;50.364;8.944;2023-02-04T11:58:22;28.23;;;3.75;;
29352;SDS011;16344;50.364;8.944;2023-02-04T12:00:50;27.55;;;3.85;;
29352;SDS011;16344;50.364;8.944;2023-02-04T12:03:26;21.73;;;4.40;;
29352;SDS011;16344;50.364;8.944;2023-02-04T12:05:58;23.08;;;3.20;;
29352;SDS011;16344;50.364;8.944;2023-02-04T12:08:25;27.60;;;3.83;;
29352;SDS011;16344;50.364;8.944;2023-02-04T12:13:27;28.20;;;3.42;;
29352;SDS011;16344;50.364;8.944;2023-02-04T12:16:00;31.08;;;4.10;;
29352;SDS011;16344;50.364;8.944;2023-02-04T12:18:30;29.40;;;4.10;;
29352;SDS011;16344;50.364;8.944;2023-02-04T12:20:57;28.70;;;3.10;;
29352;SDS011;16344;50.364;8.944;2023-02-04T12:23:24;27.50;;;4.28;;
29352;SDS011;16344;50.364;8.944;2023-02-04T12:25:51;34.22;;;4.55;;
29352;SDS011;16344;50.364;8.944;2023-02-04T12:28:17;28.55;;;3.70;;
29352;SDS011;16344;50.364;8.944;2023-02-04T12:30:42;25.05;;;3.40;;
29352;SDS011;16344;50.364;8.944;2023-02-04T12:33:08;23.52;;;3.50;;
29352;SDS011;16344;50.364;8.944;2023-02-04T12:35:34;19.88;;;3.50;;
29352;SDS011;16344;50.364;8.944;2023-02-04T12:38:00;33.88;;;4.25;;
29352;SDS011;16344;50.364;8.944;2023-02-04T12:40:25;28.15;;;4.75;;
29352;SDS011;16344;50.364;8.944;2023-02-04T12:42:52;27.73;;;3.67;;
29352;SDS011;16344;50.364;8.944;2023-02-04T12:45:18;26.50;;;4.40;;
29352;SDS011;16344;50.364;8.944;2023-02-04T12:47:43;44.40;;;9.50;;
29352;SDS011;16344;50.364;8.944;2023-02-04T12:50:10;25.90;;;6.90;;
29352;SDS011;16344;50.364;8.944;2023-02-04T12:52:37;30.10;;;4.68;;
29352;SDS011;16344;50.364;8.944;2023-02-04T12:55:03;24.67;;;3.53;;
29352;SDS011;16344;50.364;8.944;2023-02-04T12:57:30;26.08;;;4.45;;
29352;SDS011;16344;50.364;8.944;2023-02-04T12:59:56;28.23;;;3.80;;
29352;SDS011;16344;50.364;8.944;2023-02-04T13:02:24;25.92;;;3.40;;
29352;SDS011;16344;50.364;8.944;2023-02-04T13:04:50;29.50;;;4.68;;
29352;SDS011;16344;50.364;8.944;2023-02-04T13:07:16;20.58;;;3.58;;
29352;SDS011;16344;50.364;8.944;2023-02-04T13:09:42;30.70;;;3.83;;
29352;SDS011;16344;50.364;8.944;2023-02-04T13:12:09;19.50;;;3.65;;
29352;SDS011;16344;50.364;8.944;2023-02-04T13:14:34;29.83;;;3.97;;
29352;SDS011;16344;50.364;8.944;2023-02-04T13:17:00;27.23;;;4.25;;
29352;SDS011;16344;50.364;8.944;2023-02-04T13:19:26;25.13;;;3.05;;
29352;SDS011;16344;50.364;8.944;2023-02-04T13:21:51;18.38;;;3.40;;
29352;SDS011;16344;50.364;8.944;2023-02-04T13:24:17;20.30;;;3.40;;
29352;SDS011;16344;50.364;8.944;2023-02-04T13:26:42;25.40;;;3.53;;
29352;SDS011;16344;50.364;8.944;2023-02-04T13:29:08;28.05;;;3.85;;
29352;SDS011;16344;50.364;8.944;2023-02-04T13:31:33;27.13;;;3.83;;
29352;SDS011;16344;50.364;8.944;2023-02-04T13:33:59;26.38;;;4.55;;
29352;SDS011;16344;50.364;8.944;2023-02-04T13:36:24;22.73;;;3.75;;
29352;SDS011;16344;50.364;8.944;2023-02-04T13:38:52;21.45;;;3.40;;
29352;SDS011;16344;50.364;8.944;2023-02-04T13:41:17;18.38;;;3.45;;
29352;SDS011;16344;50.364;8.944;2023-02-04T13:43:43;19.48;;;3.67;;
29352;SDS011;16344;50.364;8.944;2023-02-04T13:46:08;26.95;;;3.67;;
29352;SDS011;16344;50.364;8.944;2023-02-04T13:48:34;24.40;;;3.58;;
29352;SDS011;16344;50.364;8.944;2023-02-04T13:50:59;18.25;;;3.25;;
29352;SDS011;16344;50.364;8.944;2023-02-04T13:53:25;27.25;;;3.22;;
29352;SDS011;16344;50.364;8.944;2023-02-04T13:55:55;25.67;;;2.92;;
29352;SDS011;16344;50.364;8.944;2023-02-04T13:58:23;18.67;;;3.20;;
29352;SDS011;16344;50.364;8.944;2023-02-04T14:00:49;19.42;;;3.35;;
29352;SDS011;16344;50.364;8.944;2023-02-04T14:03:15;19.20;;;3.35;;
29352;SDS011;16344;50.364;8.944;2023-02-04T14:05:40;16.13;;;2.30;;
29352;SDS011;16344;50.364;8.944;2023-02-04T14:08:06;23.38;;;3.40;;
29352;SDS011;16344;50.364;8.944;2023-02-04T14:10:31;25.83;;;2.92;;
29352;SDS011;16344;50.364;8.944;2023-02-04T14:12:57;25.90;;;2.83;;
29352;SDS011;16344;50.364;8.944;2023-02-04T14:15:22;13.88;;;2.22;;
29352;SDS011;16344;50.364;8.944;2023-02-04T14:17:48;19.58;;;3.00;;
29352;SDS011;16344;50.364;8.944;2023-02-04T14:20:14;17.20;;;3.38;;
29352;SDS011;16344;50.364;8.944;2023-02-04T14:22:40;34.63;;;3.72;;
29352;SDS011;16344;50.364;8.944;2023-02-04T14:25:05;15.57;;;2.90;;
29352;SDS011;16344;50.364;8.944;2023-02-04T14:27:31;20.83;;;3.03;;
29352;SDS011;16344;50.364;8.944;2023-02-04T14:29:59;19.83;;;2.90;;
29352;SDS011;16344;50.364;8.944;2023-02-04T14:32:24;18.95;;;2.85;;
29352;SDS011;16344;50.364;8.944;2023-02-04T14:34:50;25.50;;;3.13;;
29352;SDS011;16344;50.364;8.944;2023-02-04T14:37:15;21.60;;;2.30;;
29352;SDS011;16344;50.364;8.944;2023-02-04T14:39:41;19.63;;;2.80;;